Time;durP1;ratioP1;P1;durP2;ratioP2;P2;SDS_P1;SDS_P2;PMS_P1;PMS_P2;Temp;Humidity;BMP_temperature;BMP_pressure;BME280_temperature;BME280_humidity;BME280_pressure;Samples;Min_cycle;Max_cycle;Signal;HPM_P1;HPM_P2
2022/06/17 00:00:54;;;;;;;3.13;2.80;;;24.00;38.90;;;;;;5073818;28;20185;-86
2022/06/17 00:03:22;;;;;;;3.28;2.85;;;24.10;38.00;;;;;;5073409;28;20207;-85
2022/06/17 00:05:49;;;;;;;3.05;2.85;;;24.10;38.00;;;;;;5043443;28;20191;-86
2022/06/17 00:08:26;;;;;;;4.18;3.25;;;24.10;37.10;;;;;;5075158;28;20187;-86
2022/06/17 00:10:52;;;;;;;4.65;2.92;;;24.10;36.80;;;;;;5072645;28;20210;-86
2022/06/17 00:13:19;;;;;;;3.30;3.10;;;24.20;37.60;;;;;;5068358;28;20694;-86
2022/06/17 00:15:47;;;;;;;3.63;3.13;;;24.50;37.20;;;;;;5073330;28;20175;-86
2022/06/17 00:18:15;;;;;;;3.58;3.30;;;24.50;36.60;;;;;;5072425;28;20297;-86
2022/06/17 00:20:42;;;;;;;3.33;3.13;;;24.50;37.20;;;;;;5075335;28;20560;-86
2022/06/17 00:23:16;;;;;;;3.78;3.15;;;24.50;37.60;;;;;;5073406;28;20282;-86
2022/06/17 00:25:45;;;;;;;3.33;3.03;;;24.50;38.60;;;;;;5084150;28;20186;-86
2022/06/17 00:28:23;;;;;;;3.60;3.30;;;24.50;38.90;;;;;;5075186;28;20194;-86
2022/06/17 00:30:49;;;;;;;3.25;3.05;;;24.30;40.20;;;;;;5071244;28;20217;-86
2022/06/17 00:33:17;;;;;;;3.13;2.92;;;24.20;39.90;;;;;;5076902;28;20246;-86
2022/06/17 00:35:47;;;;;;;3.30;3.10;;;24.20;40.00;;;;;;5054012;28;20267;-86
2022/06/17 00:38:20;;;;;;;3.30;3.10;;;24.00;39.90;;;;;;5075332;28;20184;-86
2022/06/17 00:40:47;;;;;;;3.60;3.38;;;24.00;40.60;;;;;;5075320;28;20775;-85
2022/06/17 00:43:31;;;;;;;3.50;3.22;;;23.90;41.50;;;;;;5073526;28;20211;-86
2022/06/17 00:46:21;;;;;;;3.60;3.03;;;23.90;40.70;;;;;;5073866;28;20187;-86
2022/06/17 00:49:05;;;;;;;3.40;3.10;;;23.80;41.10;;;;;;5069416;28;20183;-86
2022/06/17 00:52:05;;;;;;;3.50;3.20;;;24.00;41.10;;;;;;5074321;28;20194;-86
2022/06/17 00:54:39;;;;;;;2.78;2.67;;;23.90;41.80;;;;;;5065077;28;20278;-86
2022/06/17 00:57:26;;;;;;;4.00;3.20;;;23.60;42.60;;;;;;5072465;28;20693;-85
2022/06/17 01:00:23;;;;;;;3.53;3.22;;;23.10;43.80;;;;;;5069642;28;20191;-86
2022/06/17 01:02:54;;;;;;;4.32;3.28;;;22.70;44.50;;;;;;5075890;28;20199;-86
2022/06/17 01:05:28;;;;;;;5.38;3.20;;;22.40;44.80;;;;;;5079927;28;20279;-87
2022/06/17 01:08:03;;;;;;;3.40;3.10;;;22.20;45.80;;;;;;5071659;28;20433;-86
2022/06/17 01:10:30;;;;;;;3.88;3.25;;;22.00;46.40;;;;;;5069702;28;20183;-86
2022/06/17 01:13:01;;;;;;;3.15;2.85;;;22.10;47.30;;;;;;5071973;28;20227;-86
2022/06/17 01:15:29;;;;;;;4.07;3.10;;;22.30;45.70;;;;;;5079724;28;20254;-86
2022/06/17 01:17:55;;;;;;;3.42;3.03;;;22.50;45.90;;;;;;5072533;28;20202;-87
2022/06/17 01:20:23;;;;;;;4.22;3.13;;;22.60;45.00;;;;;;5074581;28;20677;-86
2022/06/17 01:22:52;;;;;;;3.60;2.92;;;22.50;45.00;;;;;;5077612;28;20788;-87
2022/06/17 01:25:28;;;;;;;3.63;3.33;;;22.20;45.60;;;;;;5072056;28;20195;-86
2022/06/17 01:27:58;;;;;;;3.70;3.30;;;21.80;47.20;;;;;;5068297;28;20194;-86
2022/06/17 01:30:28;;;;;;;2.90;2.70;;;21.40;48.30;;;;;;5076072;28;20206;-86
2022/06/17 01:33:02;;;;;;;3.50;3.20;;;21.30;48.70;;;;;;5073173;28;20209;-85
2022/06/17 01:35:35;;;;;;;3.30;3.03;;;21.20;49.00;;;;;;5071116;28;20184;-86
2022/06/17 01:38:01;;;;;;;3.30;3.10;;;21.10;49.50;;;;;;5071281;28;20264;-86
2022/06/17 01:40:28;;;;;;;3.45;3.15;;;21.00;49.80;;;;;;5050543;28;20234;-86
2022/06/17 01:42:57;;;;;;;3.13;2.90;;;21.20;50.10;;;;;;5071147;28;20235;-86
2022/06/17 01:45:23;;;;;;;3.20;2.90;;;21.50;49.10;;;;;;5056334;28;20720;-87
2022/06/17 01:47:49;;;;;;;3.28;3.08;;;21.80;48.30;;;;;;5055630;28;20198;-85
2022/06/17 01:50:21;;;;;;;4.32;3.03;;;21.90;48.10;;;;;;5070983;28;20198;-86
2022/06/17 01:52:57;;;;;;;3.10;2.88;;;21.70;48.40;;;;;;5070758;28;20646;-86
2022/06/17 01:55:34;;;;;;;3.28;2.90;;;21.40;49.60;;;;;;5062455;28;20193;-87
2022/06/17 01:58:06;;;;;;;3.22;3.00;;;21.50;49.30;;;;;;5070780;28;20191;-86
2022/06/17 02:00:32;;;;;;;3.38;3.05;;;21.70;48.90;;;;;;5073887;28;20357;-86
2022/06/17 02:03:10;;;;;;;3.63;3.33;;;21.60;48.60;;;;;;5077842;28;20711;-87
2022/06/17 02:05:37;;;;;;;3.70;2.80;;;21.50;48.50;;;;;;5064508;28;20198;-85
2022/06/17 02:08:04;;;;;;;3.65;3.22;;;21.50;49.00;;;;;;5071000;28;20548;-86
2022/06/17 02:10:35;;;;;;;3.40;3.10;;;21.40;49.30;;;;;;5071611;28;20421;-86
2022/06/17 02:13:03;;;;;;;4.22;3.25;;;21.30;49.80;;;;;;5073796;28;20685;-84
2022/06/17 02:15:29;;;;;;;3.50;3.08;;;21.20;49.90;;;;;;5073491;28;20720;-86
2022/06/17 02:17:55;;;;;;;3.58;2.90;;;20.90;51.40;;;;;;5076310;28;20186;-84
2022/06/17 02:20:23;;;;;;;3.38;3.10;;;20.60;53.00;;;;;;5070941;28;20196;-86
2022/06/17 02:22:50;;;;;;;3.72;2.78;;;20.50;53.20;;;;;;5070207;28;20840;-87
2022/06/17 02:25:19;;;;;;;3.05;2.85;;;20.60;53.30;;;;;;5070413;28;20553;-87
2022/06/17 02:27:47;;;;;;;3.22;3.03;;;20.90;52.90;;;;;;5069309;28;20196;-87
2022/06/17 02:30:13;;;;;;;3.13;2.92;;;21.10;52.30;;;;;;5072191;28;20240;-85
2022/06/17 02:32:40;;;;;;;4.18;3.40;;;21.30;51.60;;;;;;5069584;28;20231;-86
2022/06/17 02:35:29;;;;;;;3.47;3.20;;;21.00;50.80;;;;;;5076692;28;20645;-87
2022/06/17 02:37:55;;;;;;;3.50;3.22;;;20.50;52.00;;;;;;5071688;28;20651;-86
2022/06/17 02:40:23;;;;;;;3.83;3.30;;;20.10;52.10;;;;;;5081476;28;20183;-87
2022/06/17 02:42:49;;;;;;;4.03;3.72;;;19.70;53.80;;;;;;5079775;28;20210;-86
2022/06/17 02:45:20;;;;;;;3.30;3.10;;;19.60;55.40;;;;;;5078759;28;20553;-86
2022/06/17 02:47:46;;;;;;;3.58;3.38;;;19.40;56.90;;;;;;5076341;28;20191;-86
2022/06/17 02:50:19;;;;;;;3.50;3.30;;;19.10;55.30;;;;;;5069253;28;20207;-86
2022/06/17 02:52:45;;;;;;;3.30;3.10;;;19.00;57.30;;;;;;5077645;28;20218;-87
2022/06/17 02:55:23;;;;;;;3.20;2.90;;;19.00;57.20;;;;;;5081005;28;20191;-86
2022/06/17 02:57:49;;;;;;;4.68;3.10;;;19.10;55.70;;;;;;5063709;28;20190;-85
2022/06/17 03:00:20;;;;;;;3.65;3.05;;;19.40;54.70;;;;;;5084268;28;20183;-85
2022/06/17 03:02:54;;;;;;;3.78;3.58;;;19.40;55.30;;;;;;5072679;28;20270;-85
2022/06/17 03:05:26;;;;;;;3.20;3.00;;;19.30;53.90;;;;;;5074099;28;20175;-85
2022/06/17 03:07:54;;;;;;;3.55;3.25;;;19.30;56.00;;;;;;5074948;28;20191;-85
2022/06/17 03:10:43;;;;;;;3.38;3.05;;;19.20;55.60;;;;;;5076215;28;20736;-85
2022/06/17 03:13:28;;;;;;;5.10;3.00;;;19.20;58.20;;;;;;5055331;28;20840;-85
2022/06/17 03:15:57;;;;;;;8.38;3.10;;;19.00;58.10;;;;;;5081579;28;20238;-85
2022/06/17 03:18:24;;;;;;;3.50;3.20;;;18.70;57.80;;;;;;5080546;28;20186;-85
2022/06/17 03:20:50;;;;;;;3.80;3.50;;;18.70;58.40;;;;;;5081889;28;20188;-85
2022/06/17 03:23:24;;;;;;;3.30;3.10;;;18.90;56.10;;;;;;5079823;28;20218;-85
2022/06/17 03:26:13;;;;;;;4.05;3.30;;;19.20;56.50;;;;;;5083447;28;20267;-86
2022/06/17 03:28:43;;;;;;;3.90;3.47;;;19.50;55.50;;;;;;5079214;28;20205;-86
2022/06/17 03:31:24;;;;;;;3.65;3.35;;;19.50;53.50;;;;;;5088055;28;20274;-86
2022/06/17 03:33:55;;;;;;;3.40;3.10;;;19.70;53.50;;;;;;5085907;28;20211;-86
2022/06/17 03:36:34;;;;;;;4.22;3.33;;;19.90;52.20;;;;;;5077622;28;20793;-86
2022/06/17 03:39:03;;;;;;;4.50;3.05;;;20.20;52.20;;;;;;5081421;28;20210;-85
2022/06/17 03:41:48;;;;;;;4.20;3.30;;;20.20;51.60;;;;;;5063650;28;20181;-86
2022/06/17 03:44:20;;;;;;;4.35;3.42;;;20.40;51.00;;;;;;5074515;28;20827;-85
2022/06/17 03:47:05;;;;;;;3.65;3.35;;;20.30;52.40;;;;;;5084162;28;20199;-85
2022/06/17 03:49:44;;;;;;;3.58;3.28;;;20.30;53.00;;;;;;5084506;28;20188;-86
2022/06/17 03:52:20;;;;;;;4.25;3.30;;;20.30;53.30;;;;;;5080624;28;20185;-86
2022/06/17 03:54:46;;;;;;;3.67;3.08;;;20.40;51.80;;;;;;5079776;28;20215;-86
2022/06/17 03:57:16;;;;;;;6.75;3.60;;;20.30;51.10;;;;;;5081636;28;20189;-87
2022/06/17 03:59:45;;;;;;;3.55;3.35;;;20.30;51.20;;;;;;5082784;28;20181;-86
2022/06/17 04:02:14;;;;;;;4.32;3.67;;;20.30;51.90;;;;;;5081078;28;20189;-86
2022/06/17 04:04:47;;;;;;;3.50;3.20;;;20.20;52.80;;;;;;5069751;28;20261;-86
2022/06/17 04:07:14;;;;;;;3.30;3.10;;;20.20;53.90;;;;;;5083672;28;20182;-86
2022/06/17 04:09:45;;;;;;;4.78;3.30;;;20.10;53.80;;;;;;5072560;28;20433;-86
2022/06/17 04:12:11;;;;;;;3.50;3.30;;;20.20;52.90;;;;;;5065252;28;20189;-86
2022/06/17 04:15:09;;;;;;;4.25;3.80;;;20.20;53.30;;;;;;5065403;28;20295;-86
2022/06/17 04:17:40;;;;;;;3.70;3.40;;;20.20;52.60;;;;;;5082664;28;20188;-86
2022/06/17 04:20:40;;;;;;;3.50;3.20;;;20.10;54.20;;;;;;5085111;28;20261;-86
2022/06/17 04:23:17;;;;;;;3.47;3.17;;;20.10;54.10;;;;;;5083896;28;20179;-86
2022/06/17 04:26:07;;;;;;;3.67;3.47;;;20.00;54.90;;;;;;5076653;28;20182;-86
2022/06/17 04:28:42;;;;;;;4.60;3.22;;;20.20;55.00;;;;;;5083674;28;20200;-86
2022/06/17 04:31:15;;;;;;;3.50;3.25;;;20.30;53.30;;;;;;5083991;28;20195;-86
2022/06/17 04:33:46;;;;;;;5.13;3.40;;;20.20;53.60;;;;;;5082560;28;20223;-87
2022/06/17 04:36:30;;;;;;;4.22;3.60;;;20.20;53.80;;;;;;5067452;28;20216;-86
2022/06/17 04:38:58;;;;;;;4.00;3.45;;;20.30;53.40;;;;;;5084198;28;20181;-87
2022/06/17 04:41:28;;;;;;;4.20;3.90;;;20.10;54.00;;;;;;5067826;28;20222;-86
2022/06/17 04:43:56;;;;;;;4.53;3.50;;;20.20;53.90;;;;;;5085111;28;20223;-86
2022/06/17 04:46:41;;;;;;;4.00;3.70;;;20.20;53.30;;;;;;5085669;28;20199;-86
2022/06/17 04:49:17;;;;;;;4.15;3.78;;;20.00;53.80;;;;;;5083551;28;20198;-87
2022/06/17 04:51:43;;;;;;;5.03;3.58;;;19.90;54.50;;;;;;5092338;28;20218;-87
2022/06/17 04:54:11;;;;;;;3.95;3.65;;;19.80;54.70;;;;;;5067123;28;20222;-86
2022/06/17 04:56:46;;;;;;;3.90;3.60;;;19.90;54.80;;;;;;5087724;28;20184;-86
2022/06/17 04:59:40;;;;;;;4.18;3.88;;;19.90;55.00;;;;;;5085326;28;20183;-86
2022/06/17 05:02:17;;;;;;;4.97;3.60;;;19.70;55.20;;;;;;5084246;28;20207;-86
2022/06/17 05:04:45;;;;;;;3.78;3.47;;;19.60;55.50;;;;;;5086509;28;20198;-86
2022/06/17 05:07:11;;;;;;;3.78;3.47;;;19.80;55.00;;;;;;5087786;28;20275;-86
2022/06/17 05:09:45;;;;;;;6.28;3.60;;;19.90;54.60;;;;;;5070753;28;20195;-87
2022/06/17 05:12:40;;;;;;;3.88;3.58;;;20.00;53.90;;;;;;5083955;28;20236;-87
2022/06/17 05:15:17;;;;;;;4.40;4.00;;;20.00;54.30;;;;;;5052802;28;20215;-86
2022/06/17 05:17:43;;;;;;;4.22;3.92;;;19.80;54.20;;;;;;5083563;28;20243;-86
2022/06/17 05:20:18;;;;;;;6.55;3.67;;;19.70;54.70;;;;;;5089389;28;20210;-86
2022/06/17 05:22:50;;;;;;;3.80;3.50;;;19.60;55.60;;;;;;5087569;28;20179;-86
2022/06/17 05:25:22;;;;;;;4.18;3.78;;;19.60;55.60;;;;;;5088802;28;20188;-86
2022/06/17 05:27:48;;;;;;;4.28;3.88;;;19.60;55.70;;;;;;5087643;28;20179;-86
2022/06/17 05:30:14;;;;;;;5.70;3.50;;;19.40;56.40;;;;;;5089324;28;20194;-86
2022/06/17 05:32:45;;;;;;;6.28;3.85;;;19.30;56.70;;;;;;5085040;28;20230;-86
2022/06/17 05:35:10;;;;;;;5.18;3.85;;;19.40;56.80;;;;;;5081361;28;20203;-86
2022/06/17 05:37:36;;;;;;;4.70;3.67;;;19.60;56.90;;;;;;5080456;28;20776;-86
2022/06/17 05:40:03;;;;;;;5.82;3.60;;;19.70;56.30;;;;;;5079697;28;20183;-86
2022/06/17 05:42:29;;;;;;;4.32;3.80;;;19.60;56.00;;;;;;5077454;28;20191;-86
2022/06/17 05:44:55;;;;;;;4.15;3.70;;;19.70;55.50;;;;;;5077097;28;20219;-86
2022/06/17 05:47:21;;;;;;;6.15;3.85;;;19.70;55.70;;;;;;5078570;28;20665;-86
2022/06/17 05:49:46;;;;;;;5.13;3.50;;;19.70;56.00;;;;;;5086669;28;20199;-86
2022/06/17 05:52:13;;;;;;;3.90;3.60;;;19.70;55.20;;;;;;5055651;28;20195;-86
2022/06/17 05:54:38;;;;;;;3.47;3.28;;;19.90;54.90;;;;;;5041727;28;20647;-86
2022/06/17 05:57:04;;;;;;;3.72;3.42;;;20.10;54.80;;;;;;5079139;28;20208;-85
2022/06/17 05:59:30;;;;;;;5.90;3.50;;;20.20;54.20;;;;;;5075055;28;20188;-86
2022/06/17 06:01:55;;;;;;;4.40;3.50;;;20.40;53.70;;;;;;5082534;28;20179;-86
2022/06/17 06:04:21;;;;;;;3.63;3.42;;;20.50;52.90;;;;;;5068487;28;20212;-86
2022/06/17 06:06:48;;;;;;;4.90;3.65;;;20.60;52.90;;;;;;5063738;28;20194;-86
2022/06/17 06:09:14;;;;;;;3.63;3.38;;;20.70;52.10;;;;;;5085165;28;20727;-86
2022/06/17 06:11:40;;;;;;;3.65;3.35;;;20.70;51.80;;;;;;5073755;28;20195;-87
2022/06/17 06:14:06;;;;;;;4.45;3.47;;;20.80;51.70;;;;;;5079155;28;20209;-87
2022/06/17 06:16:31;;;;;;;4.03;3.40;;;20.90;50.80;;;;;;5078245;28;20185;-87
2022/06/17 06:18:57;;;;;;;3.47;3.17;;;21.00;51.10;;;;;;5086723;28;20594;-87
2022/06/17 06:21:23;;;;;;;3.60;3.40;;;21.10;50.00;;;;;;5090230;28;20210;-86
2022/06/17 06:23:49;;;;;;;4.07;3.78;;;21.20;49.60;;;;;;5078074;28;20248;-87
2022/06/17 06:26:18;;;;;;;4.05;3.65;;;21.30;49.50;;;;;;5078604;28;20516;-87
2022/06/17 06:28:44;;;;;;;3.78;3.47;;;21.40;48.90;;;;;;5094671;28;20218;-87
2022/06/17 06:31:35;;;;;;;3.58;3.38;;;21.30;49.00;;;;;;5078643;28;20671;-86
2022/06/17 06:34:02;;;;;;;3.40;3.20;;;21.20;48.80;;;;;;5072831;28;20583;-87
2022/06/17 06:36:28;;;;;;;3.80;3.42;;;21.10;49.50;;;;;;5073199;28;20287;-86
2022/06/17 06:38:54;;;;;;;5.10;3.42;;;21.20;49.50;;;;;;5062964;28;20212;-85
2022/06/17 06:41:23;;;;;;;6.03;3.45;;;21.20;49.30;;;;;;5060031;28;20196;-86
2022/06/17 06:43:49;;;;;;;4.10;3.70;;;21.20;49.70;;;;;;5079138;28;20236;-87
2022/06/17 06:46:17;;;;;;;4.03;3.20;;;21.20;50.40;;;;;;5077372;28;20191;-87
2022/06/17 06:48:44;;;;;;;4.78;3.67;;;21.30;49.70;;;;;;5077742;28;20237;-86
2022/06/17 06:51:10;;;;;;;6.03;3.63;;;21.30;49.30;;;;;;5081338;28;20256;-87
2022/06/17 06:53:36;;;;;;;3.60;3.30;;;21.30;49.10;;;;;;5088462;28;20215;-86
2022/06/17 06:56:05;;;;;;;3.65;3.35;;;21.60;48.70;;;;;;5083127;28;20565;-86
2022/06/17 06:58:31;;;;;;;3.50;3.28;;;21.60;48.70;;;;;;5065023;28;20189;-87
2022/06/17 07:00:57;;;;;;;3.88;3.35;;;21.70;49.10;;;;;;5085036;28;20746;-87
2022/06/17 07:03:25;;;;;;;3.40;3.20;;;21.70;48.00;;;;;;5082192;28;20220;-86
2022/06/17 07:06:00;;;;;;;3.72;3.20;;;21.70;48.40;;;;;;5081811;28;20181;-86
2022/06/17 07:08:28;;;;;;;3.90;3.60;;;21.60;48.40;;;;;;5063037;28;20211;-86
2022/06/17 07:10:55;;;;;;;4.78;3.08;;;21.80;48.20;;;;;;5082844;28;20200;-86
2022/06/17 07:13:22;;;;;;;3.25;3.05;;;21.90;47.30;;;;;;5083503;28;20229;-87
2022/06/17 07:15:50;;;;;;;3.60;3.30;;;22.10;46.60;;;;;;5082799;28;20183;-86
2022/06/17 07:18:19;;;;;;;4.78;3.30;;;22.40;45.70;;;;;;5082199;28;20179;-86
2022/06/17 07:20:47;;;;;;;3.50;3.20;;;22.50;45.90;;;;;;5082647;28;20291;-86
2022/06/17 07:23:16;;;;;;;4.72;3.35;;;22.70;44.90;;;;;;5082423;28;20230;-86
2022/06/17 07:25:42;;;;;;;3.75;3.50;;;22.80;44.20;;;;;;5082090;28;20277;-87
2022/06/17 07:28:19;;;;;;;4.63;3.50;;;22.90;44.40;;;;;;5084998;28;20180;-86
2022/06/17 07:30:47;;;;;;;3.88;3.10;;;23.00;44.10;;;;;;5082956;28;20183;-86
2022/06/17 07:33:14;;;;;;;4.22;3.50;;;23.00;43.90;;;;;;5082858;28;20699;-86
2022/06/17 07:35:41;;;;;;;3.40;3.13;;;23.10;45.10;;;;;;5061786;28;20192;-86
2022/06/17 07:41:10;;;;;;;3.30;3.10;;;23.10;45.00;;;;;;5081180;28;20557;-87
2022/06/17 07:43:35;;;;;;;3.70;3.40;;;23.30;44.60;;;;;;5082248;28;20219;-87
2022/06/17 07:46:03;;;;;;;3.72;3.42;;;23.30;45.10;;;;;;5080287;28;20211;-87
2022/06/17 07:48:29;;;;;;;3.80;3.50;;;23.40;43.70;;;;;;5080680;28;20191;-86
2022/06/17 07:50:58;;;;;;;3.53;3.22;;;23.60;43.10;;;;;;5078815;28;20730;-86
2022/06/17 07:53:27;;;;;;;3.58;3.38;;;23.70;43.60;;;;;;5062038;28;20247;-87
2022/06/17 07:55:53;;;;;;;3.65;3.40;;;23.80;43.10;;;;;;5078162;28;20191;-87
2022/06/17 07:58:20;;;;;;;3.60;3.40;;;24.00;43.00;;;;;;5079095;28;20222;-87
2022/06/17 08:00:46;;;;;;;4.07;3.65;;;24.10;42.70;;;;;;5080596;28;20195;-87
2022/06/17 08:03:15;;;;;;;3.92;3.63;;;24.30;41.80;;;;;;5080102;28;20215;-87
2022/06/17 08:05:43;;;;;;;3.95;3.75;;;24.30;42.00;;;;;;5079121;28;20694;-86
2022/06/17 08:08:09;;;;;;;6.05;3.65;;;24.50;41.70;;;;;;5063750;28;20223;-86
2022/06/17 08:10:36;;;;;;;4.05;3.70;;;24.60;41.40;;;;;;5082311;28;20225;-87
2022/06/17 08:13:07;;;;;;;4.15;3.78;;;24.60;41.50;;;;;;5081536;28;20199;-86
2022/06/17 08:15:35;;;;;;;3.92;3.60;;;24.80;40.70;;;;;;5082791;28;20184;-86
2022/06/17 08:18:00;;;;;;;6.18;3.63;;;24.80;41.50;;;;;;5080135;28;20182;-87
2022/06/17 08:20:33;;;;;;;4.03;3.72;;;24.80;39.90;;;;;;5080360;28;20184;-86
2022/06/17 08:22:58;;;;;;;4.63;3.75;;;25.00;39.80;;;;;;5081814;28;20565;-87
2022/06/17 08:25:24;;;;;;;3.75;3.42;;;25.10;39.90;;;;;;5068090;28;20214;-87
2022/06/17 08:27:54;;;;;;;3.97;3.45;;;25.00;40.20;;;;;;5067675;28;20334;-86
2022/06/17 08:30:23;;;;;;;6.30;3.67;;;24.90;41.00;;;;;;5068367;28;20191;-87
2022/06/17 08:32:53;;;;;;;3.88;3.58;;;24.80;41.30;;;;;;5083392;28;20203;-86
2022/06/17 08:35:26;;;;;;;4.20;3.80;;;24.70;41.30;;;;;;5086170;28;20263;-86
2022/06/17 08:37:57;;;;;;;4.18;3.70;;;24.80;41.90;;;;;;5083889;28;20172;-86
2022/06/17 08:40:48;;;;;;;4.00;3.70;;;25.00;41.20;;;;;;5088557;28;20236;-87
2022/06/17 08:43:44;;;;;;;3.57;3.30;;;25.20;40.00;;;;;;5040398;28;1237551;-87
2022/06/17 08:46:24;;;;;;;3.88;3.58;;;25.50;39.50;;;;;;5086287;28;20685;-86
2022/06/17 08:49:02;;;;;;;4.95;4.10;;;25.50;38.80;;;;;;5092293;28;20176;-86
2022/06/17 08:51:38;;;;;;;3.65;3.45;;;25.70;39.20;;;;;;5085169;28;20180;-87
2022/06/17 08:54:28;;;;;;;4.18;3.78;;;25.60;39.00;;;;;;5086222;28;20686;-88
2022/06/17 08:56:53;;;;;;;7.80;3.72;;;25.80;38.60;;;;;;5086198;28;20179;-87
2022/06/17 08:59:29;;;;;;;4.00;3.70;;;26.10;37.10;;;;;;5087420;28;20226;-87
2022/06/17 09:02:19;;;;;;;4.22;3.92;;;26.20;36.60;;;;;;5086131;28;20621;-86
2022/06/17 09:04:44;;;;;;;4.18;3.78;;;26.10;36.30;;;;;;5069797;28;20196;-87
2022/06/17 09:07:30;;;;;;;3.83;3.63;;;26.30;36.30;;;;;;5086058;28;20198;-87
2022/06/17 09:10:15;;;;;;;4.15;3.80;;;26.60;36.80;;;;;;5064827;28;20615;-87
2022/06/17 09:12:43;;;;;;;4.25;3.90;;;26.80;34.10;;;;;;5086108;28;20207;-87
2022/06/17 09:15:19;;;;;;;4.07;3.80;;;27.00;34.90;;;;;;5085030;28;20231;-87
2022/06/17 09:17:57;;;;;;;5.43;3.67;;;27.10;35.00;;;;;;5086743;28;20179;-87
2022/06/17 09:20:32;;;;;;;4.95;3.83;;;27.30;35.10;;;;;;5085203;28;20183;-87
2022/06/17 09:23:01;;;;;;;4.25;3.92;;;27.00;35.60;;;;;;5088794;28;20258;-87
2022/06/17 09:25:38;;;;;;;4.38;3.95;;;27.30;34.70;;;;;;5087535;28;20194;-87
2022/06/17 09:28:09;;;;;;;4.05;3.85;;;27.50;33.70;;;;;;5086193;28;20189;-86
2022/06/17 09:30:40;;;;;;;5.43;3.90;;;27.50;33.80;;;;;;5069505;28;20193;-87
2022/06/17 09:33:15;;;;;;;4.45;4.05;;;27.40;34.40;;;;;;5087569;28;20203;-87
2022/06/17 09:35:54;;;;;;;3.83;3.53;;;27.50;34.60;;;;;;5085411;28;20199;-87
2022/06/17 09:38:26;;;;;;;4.20;3.80;;;27.80;33.70;;;;;;5082739;28;20198;-88
2022/06/17 09:41:20;;;;;;;4.32;4.03;;;27.80;33.70;;;;;;5070249;28;20190;-88
2022/06/17 09:44:02;;;;;;;4.10;3.80;;;28.10;32.30;;;;;;5086005;28;20252;-87
2022/06/17 09:46:50;;;;;;;3.85;3.65;;;28.10;32.80;;;;;;5090946;28;20214;-87
2022/06/17 09:49:47;;;;;;;4.00;3.70;;;27.90;33.10;;;;;;5085630;28;20180;-88
2022/06/17 09:52:26;;;;;;;4.10;3.80;;;27.80;32.90;;;;;;5084200;28;20192;-87
2022/06/17 09:55:04;;;;;;;3.95;3.75;;;28.20;33.30;;;;;;5084299;28;20206;-88
2022/06/17 09:58:06;;;;;;;4.78;3.58;;;28.50;32.10;;;;;;5084501;28;20206;-88
2022/06/17 10:00:45;;;;;;;4.43;4.13;;;28.80;31.10;;;;;;5085574;28;20171;-88
2022/06/17 10:03:23;;;;;;;4.10;3.83;;;28.70;31.60;;;;;;5084136;28;20238;-87
2022/06/17 10:05:56;;;;;;;3.95;3.65;;;28.70;31.30;;;;;;5085537;28;20265;-87
2022/06/17 10:08:35;;;;;;;3.90;3.70;;;28.70;31.30;;;;;;5086637;28;20196;-86
2022/06/17 10:11:01;;;;;;;3.88;3.67;;;28.80;31.30;;;;;;5083650;28;20190;-87
2022/06/17 10:14:14;;;;;;;4.20;3.80;;;28.80;30.60;;;;;;5089056;28;20215;-83
2022/06/17 10:20:03;;;;;;;4.15;3.70;;;29.40;29.90;;;;;;5084398;28;20810;-86
2022/06/17 10:22:48;;;;;;;4.68;3.92;;;29.40;29.90;;;;;;5082012;28;20183;-86
2022/06/17 10:25:32;;;;;;;4.18;3.88;;;29.80;29.60;;;;;;5082240;28;20298;-87
2022/06/17 10:28:28;;;;;;;4.00;3.70;;;30.00;28.90;;;;;;5082453;28;20206;-87
2022/06/17 10:30:59;;;;;;;3.92;3.72;;;30.20;28.40;;;;;;5084680;28;20168;-87
2022/06/17 10:33:27;;;;;;;4.10;3.80;;;30.30;27.90;;;;;;5086438;28;20212;-87
2022/06/17 10:35:53;;;;;;;3.80;3.50;;;30.60;28.10;;;;;;5065746;28;20574;-87
2022/06/17 10:38:28;;;;;;;3.83;3.53;;;30.80;27.40;;;;;;5068188;28;20566;-88
2022/06/17 10:40:54;;;;;;;3.97;3.78;;;30.70;27.50;;;;;;5087961;28;20178;-88
2022/06/17 10:43:23;;;;;;;3.65;3.45;;;30.70;27.10;;;;;;5065573;28;20768;-88
2022/06/17 10:45:49;;;;;;;4.25;3.90;;;30.70;26.70;;;;;;5082032;28;20290;-88
2022/06/17 10:48:27;;;;;;;3.50;3.30;;;30.90;26.90;;;;;;5066415;28;20211;-89
2022/06/17 10:50:52;;;;;;;3.58;3.38;;;30.70;26.90;;;;;;5081408;28;20241;-88
2022/06/17 10:53:28;;;;;;;3.80;3.60;;;30.90;27.20;;;;;;5082657;28;20219;-88
2022/06/17 10:55:58;;;;;;;4.07;3.88;;;31.00;27.40;;;;;;5083842;28;20650;-88
2022/06/17 10:58:27;;;;;;;4.22;3.83;;;30.70;27.40;;;;;;5066298;28;20187;-87
2022/06/17 11:00:55;;;;;;;4.18;3.90;;;30.90;27.50;;;;;;5089337;28;20192;-88
2022/06/17 11:03:33;;;;;;;3.63;3.42;;;31.00;28.60;;;;;;5088421;28;20212;-87
2022/06/17 11:06:19;;;;;;;3.97;3.67;;;31.20;26.60;;;;;;5070245;28;20553;-88
2022/06/17 11:09:01;;;;;;;4.10;3.70;;;31.60;26.40;;;;;;5081500;28;20188;-88
2022/06/17 11:12:04;;;;;;;3.95;3.60;;;31.80;25.80;;;;;;5086095;28;20199;-88
2022/06/17 11:14:44;;;;;;;4.15;3.83;;;31.90;25.40;;;;;;5083236;28;20215;-89
2022/06/17 11:17:21;;;;;;;4.40;4.10;;;32.20;26.90;;;;;;5088172;28;20206;-88
2022/06/17 11:19:51;;;;;;;3.97;3.78;;;32.20;27.80;;;;;;5087892;28;20180;-88
2022/06/17 11:22:31;;;;;;;4.35;4.05;;;32.20;27.50;;;;;;5075691;28;20205;-88
2022/06/17 11:25:23;;;;;;;5.28;4.28;;;32.50;27.00;;;;;;5087636;28;20297;-88
2022/06/17 11:27:58;;;;;;;4.07;3.80;;;32.60;27.10;;;;;;5071813;28;20624;-88
2022/06/17 11:30:30;;;;;;;4.65;4.20;;;32.70;27.60;;;;;;5080823;28;20217;-88
2022/06/17 11:32:59;;;;;;;4.47;4.10;;;32.80;27.00;;;;;;5082643;28;20593;-88
2022/06/17 11:35:33;;;;;;;4.40;4.00;;;33.00;27.10;;;;;;5064924;28;20184;-88
2022/06/17 11:38:02;;;;;;;4.00;3.80;;;33.30;24.00;;;;;;5084439;28;20198;-88
2022/06/17 11:40:32;;;;;;;4.35;4.13;;;33.20;24.70;;;;;;5088353;28;20179;-88
2022/06/17 11:43:06;;;;;;;4.65;4.30;;;32.90;25.40;;;;;;5068322;28;20308;-88
2022/06/17 11:45:39;;;;;;;4.38;4.10;;;32.80;26.00;;;;;;5089455;28;20196;-88
2022/06/17 11:48:20;;;;;;;3.85;3.65;;;32.90;25.30;;;;;;5087739;28;20549;-88
2022/06/17 11:51:23;;;;;;;4.55;4.13;;;33.10;24.50;;;;;;5088534;28;20183;-88
2022/06/17 11:53:56;;;;;;;4.20;4.00;;;33.50;24.90;;;;;;5086976;28;20333;-87
2022/06/17 11:56:33;;;;;;;4.65;4.10;;;33.50;24.90;;;;;;5086319;28;20187;-88
2022/06/17 11:59:21;;;;;;;4.03;3.83;;;33.30;25.80;;;;;;5085788;28;20207;-88
2022/06/17 12:02:01;;;;;;;3.80;3.60;;;33.20;23.60;;;;;;5089757;28;20214;-87
2022/06/17 12:04:47;;;;;;;4.20;3.85;;;32.90;23.30;;;;;;5086884;28;20221;-88
2022/06/17 12:07:42;;;;;;;4.10;3.90;;;33.00;26.60;;;;;;5086988;28;20205;-87
2022/06/17 12:10:31;;;;;;;4.13;3.75;;;33.40;24.20;;;;;;5085909;28;20574;-87
2022/06/17 12:13:23;;;;;;;3.65;3.45;;;32.90;23.10;;;;;;5088806;28;20255;-88
2022/06/17 12:16:06;;;;;;;3.75;3.45;;;33.00;23.90;;;;;;5056629;28;20295;-87
2022/06/17 12:18:37;;;;;;;4.05;3.75;;;33.50;23.50;;;;;;5087555;28;20183;-88
2022/06/17 12:21:15;;;;;;;4.10;3.90;;;34.10;24.40;;;;;;5086617;28;20313;-87
2022/06/17 12:23:56;;;;;;;4.82;4.40;;;34.50;24.70;;;;;;5084507;28;20259;-88
2022/06/17 12:26:48;;;;;;;7.28;3.97;;;34.20;23.90;;;;;;5084447;28;20812;-87
2022/06/17 12:29:22;;;;;;;4.43;4.00;;;34.00;24.20;;;;;;5085811;28;20191;-87
2022/06/17 12:32:07;;;;;;;4.20;3.90;;;34.10;24.00;;;;;;5087610;28;20220;-87
2022/06/17 12:34:45;;;;;;;4.40;4.00;;;34.00;23.80;;;;;;5067612;28;20216;-88
2022/06/17 12:38:00;;;;;;;3.80;3.60;;;34.00;24.50;;;;;;5066446;28;20195;-85
2022/06/17 12:40:45;;;;;;;3.80;3.40;;;34.00;22.70;;;;;;5064851;28;20191;-86
2022/06/17 12:43:36;;;;;;;3.70;3.50;;;33.90;21.60;;;;;;5085279;28;20195;-86
2022/06/17 12:46:08;;;;;;;3.63;3.42;;;33.80;21.30;;;;;;5084685;28;20277;-85
2022/06/17 12:48:36;;;;;;;6.78;3.90;;;33.80;23.40;;;;;;5083663;28;20192;-86
2022/06/17 12:54:39;;;;;;;4.20;3.90;;;34.50;24.40;;;;;;5081887;28;20230;-86
2022/06/17 12:57:19;;;;;;;4.88;4.28;;;34.80;22.90;;;;;;5084609;28;20178;-86
2022/06/17 13:00:12;;;;;;;5.88;4.00;;;35.00;23.30;;;;;;5085644;28;20182;-86
2022/06/17 13:03:03;;;;;;;4.28;3.97;;;35.20;22.80;;;;;;5084688;28;20206;-88
2022/06/17 13:05:46;;;;;;;4.22;3.83;;;35.00;21.70;;;;;;5086909;28;20217;-87
2022/06/17 13:08:30;;;;;;;4.10;3.90;;;35.30;20.20;;;;;;5087823;28;20179;-87
2022/06/17 13:11:16;;;;;;;3.67;3.42;;;35.70;19.20;;;;;;5089748;28;20175;-87
2022/06/17 13:14:19;;;;;;;4.70;4.50;;;35.60;19.10;;;;;;5088890;28;20225;-87
2022/06/17 13:17:18;;;;;;;4.82;4.53;;;36.10;21.60;;;;;;5090417;28;20438;-87
2022/06/17 13:19:55;;;;;;;4.07;3.88;;;35.70;21.90;;;;;;5063518;28;20275;-87
2022/06/17 13:22:38;;;;;;;4.10;3.90;;;35.60;21.70;;;;;;5065170;28;20180;-87
2022/06/17 13:25:35;;;;;;;4.45;4.15;;;35.00;21.90;;;;;;5083926;28;20264;-87
2022/06/17 13:28:17;;;;;;;4.80;4.45;;;35.20;21.80;;;;;;5080453;28;20195;-87
2022/06/17 13:30:48;;;;;;;4.72;4.50;;;35.90;23.00;;;;;;5082068;28;20207;-88
2022/06/17 13:33:38;;;;;;;4.63;4.43;;;36.00;22.60;;;;;;5083808;28;20221;-87